Warning: Javascript must be enabled to use all the features on this page!


Page Loading - Please Wait...

Click to hideNews Bulletins

Peak Streamflow for the Nation

USGS 03416000 WOLF RIVER NEAR BYRDSTOWN, TN

Pickett County, Tennessee
Hydrologic Unit Code 05130105
Latitude  36°33'37", Longitude  85°04'23" NAD27
Drainage area 106  square miles
Gage datum 707.54 feet above NGVD29
Output formats
Table
Graph
Tab-separated file
peakfq (watstore) format
Reselect output format
Water
Year
Date Gage
Height
(feet)
Stream-
flow
(cfs)
1929 1929-03 10.845,Bd 12,4002,7,Bd
1944 1944-02-17 8.42 8,180
1945 1945-02-22 8.38 8,100
1946 1946-01-07 8.94 9,180
1947 1947-01-15 6.32 4,060
1948 1948-02-13 8.25 7,860
1949 1949-01-05 7.34 6,070
1950 1950-06-10 7.45 6,300
1951 1951-02-01 6.97 5,340
1952 1951-12-14 7.99 7,380
1953 1953-02-21 6.29 4,000
1954 1954-01-21 6.44 4,280
1955 1955-03-22 9.06 9,400
1956 1956-02-18 7.39 6,170
1957 1957-01-29 10.84 12,400
1958 1957-11-18 7.89 7,170
1959 1959-01-22 5.11 2,160
1960 1959-12-19 6.96 5,320
1961 1961-03-08 7.04 5,480
1962 1962-02-27 9.45 10,000
1963 1963-03-12 9.21 9,650
1964 1964-09-29 4.79 1,760
1965 1965-03-26 7.40 6,190
1966 1966-04-30 5.76 3,100
1967 1967-03-06 8.46 8,250
1968 1968-03-12 6.73 4,840
1969 1969-05-19 6.75 4,880
1970 1969-12-30 8.74 8,790
1971 1971-08-04 9.74 10,600
1972 1972-08-09 6.36 4,130
1973 1972-12-10 10.23 11,400
1974 1973-11-27 9.66 10,400
1975 1975-03-12 10.59 11,900
1976 1975-11-12 7.93 7,260
1977 1977-04-04 10.08 11,100
1978 1978-01-26 7.18 5,750
1979 1978-12-09 9.72 10,500
1980 1980-03-21 7.75 6,890
1981 1981-06-06 7.71 6,810
1982 1982-09-02 17.14 23,500
1983 1983-05-03 7.82 7,030
1984 1984-05-07 10.09 10,400
1985 1984-11-19 6.08 3,360
1986 1986-02-17 6.35 3,890
1987 1986-11-09 7.14 5,420
1988 1988-01-20 7.57 6,140
1989 1989-02-14 9.19 8,900
1990 1989-10-17 8.36 7,490
1991 1990-12-23 11.08 12,200
1992 1992-01-03 7.94 6,800
1993 1992-12-23 5.62 2,580
1994 1994-02-11 9.25 9,000
1995 1995-03-08 6.27 3,720
1996 1995-11-07 7.89 6,710
1997 1997-03-03 9.90 10,100
1998 1998-01-07 9.26 9,020
1999 1999-01-09 9.54 9,470
2000 2000-05-24 7.54 6,100
2001 2001-02-16 7.70 6,370
2002 2002-03-18 10.30 10,700
2003 2003-02-16 9.31 9,100
2004 2004-02-06 10.93 11,900
2005 2004-12-01 8.54 7,800
2006 2006-01-23 7.43 5,910
2007 2007-03-02 8.11 7,080
2008 2008-04-04 7.00 5,200
2013 2013-05-06 7.43 4,260
2014 2014-02-21 6.68 3,250
2015 2015-03-05 7.99 5,030
2016 2016-02-16 7.61 4,500
2017 2017-06-05 7.66 4,570
2018 2018-02-10 9.26 7,030
2019 2019-02-20 8.49 5,770
?
  Peak Gage-Height Qualification Codes.
?
  Peak Streamflow Qualification Codes.